Time;durP1;ratioP1;P1;durP2;ratioP2;P2;SDS_P1;SDS_P2;PMS_P1;PMS_P2;Temp;Humidity;BMP_temperature;BMP_pressure;BME280_temperature;BME280_humidity;BME280_pressure;Samples;Min_cycle;Max_cycle;Signal;HPM_P1;HPM_P2
2022/05/03 00:00:01;;;;;;;3.84;2.49;;;8.00;99.90;;;-142.70;100.00;59355.34;174003;28;1230;-70
2022/05/03 00:00:10;;;;;;;5.11;2.88;;;8.00;99.90;;;-142.70;100.00;59355.34;174045;28;1230;-69
2022/05/03 00:00:16;;;;;;;3.60;2.61;;;8.00;99.90;;;-142.70;100.00;59355.34;173460;28;1222;-69
2022/05/03 00:00:22;;;;;;;3.80;2.70;;;8.00;99.90;;;-142.70;100.00;59355.34;172424;28;1159;-71
2022/05/03 00:00:29;;;;;;;3.45;2.58;;;8.00;99.90;;;-142.70;100.00;59355.34;170691;28;1737;-70
2022/05/03 00:00:37;;;;;;;3.50;2.55;;;8.00;99.90;;;-142.70;100.00;59355.34;171563;28;1307;-70
2022/05/03 00:00:51;;;;;;;3.57;2.65;;;8.00;99.90;;;-142.70;100.00;59355.34;171124;28;1190;-70
2022/05/03 00:01:31;;;;;;;3.92;2.75;;;8.00;99.90;;;-142.70;100.00;59355.34;172602;28;1445;-70
2022/05/03 00:02:10;;;;;;;3.61;2.63;;;8.00;99.90;;;-142.70;100.00;59355.34;171969;28;1489;-69
2022/05/03 00:02:46;;;;;;;3.00;2.44;;;7.90;99.90;;;-142.70;100.00;59355.34;171657;28;1574;-69
2022/05/03 00:03:19;;;;;;;4.03;2.61;;;7.90;99.90;;;-142.70;100.00;59355.34;171044;28;1219;-66
2022/05/03 00:03:30;;;;;;;3.63;2.39;;;8.00;99.90;;;-142.70;100.00;59355.34;171794;28;2916;-70
2022/05/03 00:04:10;;;;;;;3.50;2.45;;;8.00;99.90;;;-142.70;100.00;59355.34;171606;28;1145;-68
2022/05/03 00:05:07;;;;;;;4.04;2.64;;;8.00;99.90;;;-142.70;100.00;59355.34;171091;28;1234;-69
2022/05/03 00:05:43;;;;;;;4.28;2.58;;;8.10;99.90;;;-142.70;100.00;59355.34;170060;29;1440;-71
2022/05/03 00:06:09;;;;;;;3.05;2.25;;;8.10;99.90;;;-142.70;100.00;59355.34;170869;28;1819;-66
2022/05/03 00:06:48;;;;;;;3.54;2.41;;;8.10;99.90;;;-142.70;100.00;59355.34;173356;28;1239;-67
2022/05/03 00:07:17;;;;;;;3.66;2.51;;;8.10;99.90;;;-142.70;100.00;59355.34;171348;28;1467;-71
2022/05/03 00:07:52;;;;;;;5.22;2.66;;;8.10;99.90;;;-142.70;100.00;59355.34;172636;28;2278;-71
2022/05/03 00:08:11;;;;;;;6.11;2.76;;;8.20;99.90;;;-142.70;100.00;59355.34;172454;28;1239;-69
2022/05/03 00:08:44;;;;;;;3.10;2.34;;;8.20;99.90;;;-142.70;100.00;59355.34;172519;28;1222;-69
2022/05/03 00:08:56;;;;;;;3.16;2.21;;;8.20;99.90;;;-142.70;100.00;59355.34;172432;28;1240;-68
2022/05/03 00:09:07;;;;;;;5.28;2.60;;;8.20;99.90;;;-142.70;100.00;59355.34;171638;28;1458;-70
2022/05/03 00:09:22;;;;;;;6.28;2.63;;;8.20;99.90;;;-142.70;100.00;59355.34;171857;28;2896;-71
2022/05/03 00:10:05;;;;;;;7.22;2.75;;;8.20;99.90;;;-142.70;100.00;59355.34;172422;28;1289;-69
2022/05/03 00:10:19;;;;;;;4.66;2.56;;;8.20;99.90;;;-142.70;100.00;59355.34;171612;28;2774;-70
2022/05/03 00:10:41;;;;;;;2.90;2.08;;;8.20;99.90;;;-142.70;100.00;59355.34;171610;28;1458;-71
2022/05/03 00:11:41;;;;;;;3.63;2.30;;;8.10;99.90;;;-142.70;100.00;59355.34;171064;28;1726;-68
2022/05/03 00:12:03;;;;;;;4.49;2.44;;;8.10;99.90;;;-142.70;100.00;59355.34;169127;29;1242;-69
2022/05/03 00:12:13;;;;;;;4.41;2.55;;;8.10;99.90;;;-142.70;100.00;59355.34;169650;29;1241;-70
2022/05/03 00:12:26;;;;;;;4.34;2.71;;;8.10;99.90;;;-142.70;100.00;59355.34;167605;29;2710;-66
2022/05/03 00:12:41;;;;;;;4.78;2.84;;;8.10;99.90;;;-142.70;100.00;59355.34;169163;29;1237;-70
2022/05/03 00:13:02;;;;;;;5.09;2.86;;;8.10;99.90;;;-142.70;100.00;59355.34;168908;29;1420;-69
2022/05/03 00:13:15;;;;;;;4.00;2.59;;;8.10;99.90;;;-142.70;100.00;59355.34;169562;29;1457;-69
2022/05/03 00:13:29;;;;;;;3.14;2.51;;;8.10;99.90;;;-142.70;100.00;59355.34;169551;29;1244;-69
2022/05/03 00:14:19;;;;;;;3.56;2.50;;;8.10;99.90;;;-142.70;100.00;59355.34;168926;29;1639;-69
2022/05/03 00:14:50;;;;;;;4.30;2.55;;;8.10;99.90;;;-142.70;100.00;59355.34;168376;29;1240;-69
2022/05/03 00:14:57;;;;;;;4.40;2.46;;;8.10;99.90;;;-142.70;100.00;59355.34;168076;29;1284;-70
2022/05/03 00:15:05;;;;;;;2.97;2.30;;;8.10;99.90;;;-142.70;100.00;59355.34;168388;29;1473;-68
2022/05/03 00:15:13;;;;;;;2.80;2.13;;;8.10;99.90;;;-142.70;100.00;59355.34;169426;29;979;-71
2022/05/03 00:15:21;;;;;;;2.75;2.17;;;8.10;99.90;;;-142.70;100.00;59355.34;169787;29;1025;-71
2022/05/03 00:15:27;;;;;;;3.13;2.27;;;8.10;99.90;;;-142.70;100.00;59355.34;168969;29;1240;-70
2022/05/03 00:15:37;;;;;;;3.80;2.45;;;8.10;99.90;;;-142.70;100.00;59355.34;168381;29;1556;-71
2022/05/03 00:15:44;;;;;;;4.45;2.50;;;8.10;99.90;;;-142.70;100.00;59355.34;168494;29;1155;-71
2022/05/03 00:15:50;;;;;;;4.56;2.36;;;8.10;99.90;;;-142.70;100.00;59355.34;168267;29;1592;-69
2022/05/03 00:15:57;;;;;;;4.78;2.25;;;8.10;99.90;;;-142.70;100.00;59355.34;168455;29;1035;-70
2022/05/03 00:16:03;;;;;;;4.88;2.28;;;8.00;99.90;;;-142.70;100.00;59355.34;168359;29;1077;-71
2022/05/03 00:16:10;;;;;;;4.40;2.33;;;8.00;99.90;;;-142.70;100.00;59355.34;168013;29;2091;-70
2022/05/03 00:16:16;;;;;;;4.24;2.38;;;8.10;99.90;;;-142.70;100.00;59355.34;168235;29;1357;-70
2022/05/03 00:16:23;;;;;;;3.97;2.57;;;8.00;99.90;;;-142.70;100.00;59355.34;169626;29;869;-69
2022/05/03 00:16:29;;;;;;;3.50;2.53;;;8.00;99.90;;;-142.70;100.00;59355.34;168960;29;1133;-71
2022/05/03 00:16:35;;;;;;;3.67;2.70;;;8.00;99.90;;;-142.70;100.00;59355.34;170490;29;829;-71
2022/05/03 00:16:44;;;;;;;3.67;2.70;;;8.00;99.90;;;-142.70;100.00;59355.34;170353;28;1600;-70
2022/05/03 00:16:50;;;;;;;4.74;2.67;;;8.00;99.90;;;-142.70;100.00;59355.34;170439;29;1064;-70
2022/05/03 00:16:57;;;;;;;4.80;2.50;;;8.00;99.90;;;-142.70;100.00;59355.34;170198;29;1135;-70
2022/05/03 00:17:04;;;;;;;4.46;2.34;;;8.00;99.90;;;-142.70;100.00;59355.34;170357;29;1365;-70
2022/05/03 00:17:14;;;;;;;4.66;2.40;;;8.00;99.90;;;-142.70;100.00;59355.34;169519;29;1307;-69
2022/05/03 00:17:22;;;;;;;3.49;2.35;;;8.00;99.90;;;-142.70;100.00;59355.34;170144;29;1147;-68
2022/05/03 00:17:28;;;;;;;2.97;2.30;;;8.00;99.90;;;-142.70;100.00;59355.34;168364;29;1236;-69
2022/05/03 00:17:35;;;;;;;2.85;2.38;;;8.00;99.90;;;-142.70;100.00;59355.34;170434;28;1580;-67
2022/05/03 00:17:42;;;;;;;2.53;2.23;;;8.00;99.90;;;-142.70;100.00;59355.34;171098;28;1133;-66
2022/05/03 00:17:48;;;;;;;2.80;2.40;;;8.00;99.90;;;-142.70;100.00;59355.34;172943;28;1183;-68
2022/05/03 00:17:54;;;;;;;2.80;2.40;;;8.00;99.90;;;-142.70;100.00;59355.34;171876;28;883;-70
2022/05/03 00:18:02;;;;;;;2.97;2.40;;;8.00;99.90;;;-142.70;100.00;59355.34;170573;28;1196;-70
2022/05/03 00:18:08;;;;;;;2.85;2.30;;;7.90;99.90;;;-142.70;100.00;59355.34;170449;28;1800;-70
2022/05/03 00:18:14;;;;;;;2.80;2.20;;;7.90;99.90;;;-142.70;100.00;59355.34;171625;28;1750;-69
2022/05/03 00:18:20;;;;;;;2.90;2.23;;;7.90;99.90;;;-142.70;100.00;59355.34;171590;28;1482;-71
2022/05/03 00:18:26;;;;;;;3.15;2.35;;;7.90;99.90;;;-142.70;100.00;59355.34;171086;28;1043;-69
2022/05/03 00:18:32;;;;;;;3.38;2.30;;;7.90;99.90;;;-142.70;100.00;59355.34;170847;28;1212;-70
2022/05/03 00:18:38;;;;;;;3.50;2.30;;;7.90;99.90;;;-142.70;100.00;59355.34;171693;28;1407;-70
2022/05/03 00:18:44;;;;;;;4.07;2.30;;;7.90;99.90;;;-142.70;100.00;59355.34;170638;28;1687;-70
2022/05/03 00:18:50;;;;;;;4.22;2.30;;;7.90;99.90;;;-142.70;100.00;59355.34;171028;28;1138;-69
2022/05/03 00:18:55;;;;;;;4.10;2.28;;;7.90;99.90;;;-142.70;100.00;59355.34;170253;28;1533;-69
2022/05/03 00:19:06;;;;;;;3.70;2.27;;;7.90;99.90;;;-142.70;100.00;59355.34;170920;28;1071;-70
2022/05/03 00:19:12;;;;;;;3.64;2.32;;;7.90;99.90;;;-142.70;100.00;59355.34;170746;28;1974;-68
2022/05/03 00:19:19;;;;;;;3.40;2.45;;;7.90;99.90;;;-142.70;100.00;59355.34;171121;28;1267;-71
2022/05/03 00:19:27;;;;;;;3.78;2.64;;;7.90;99.90;;;-142.70;100.00;59355.34;172077;28;1315;-69
2022/05/03 00:19:34;;;;;;;3.94;2.70;;;7.90;99.90;;;-142.70;100.00;59355.34;173047;28;1078;-69
2022/05/03 00:19:40;;;;;;;4.00;2.67;;;7.90;99.90;;;-142.70;100.00;59355.34;172343;28;1321;-66
2022/05/03 00:19:46;;;;;;;3.40;2.50;;;7.90;99.90;;;-142.70;100.00;59355.34;171492;28;1757;-70
2022/05/03 00:19:53;;;;;;;2.92;2.25;;;7.90;99.90;;;-142.70;100.00;59355.34;171559;28;1263;-70
2022/05/03 00:20:00;;;;;;;2.70;2.17;;;7.90;99.90;;;-142.70;100.00;59355.34;172490;28;888;-70
2022/05/03 00:20:06;;;;;;;2.60;2.18;;;7.90;99.90;;;-142.70;100.00;59355.34;172073;28;1462;-70
2022/05/03 00:20:12;;;;;;;2.50;2.20;;;7.90;99.90;;;-142.70;100.00;59355.34;171443;28;1594;-68
2022/05/03 00:20:19;;;;;;;2.78;2.20;;;7.90;99.90;;;-142.70;100.00;59355.34;170816;28;1283;-70
2022/05/03 00:20:25;;;;;;;3.58;2.16;;;8.00;99.90;;;-142.70;100.00;59355.34;172809;28;1543;-69
2022/05/03 00:20:31;;;;;;;4.33;2.27;;;8.00;99.90;;;-142.70;100.00;59355.34;172772;28;1122;-69
2022/05/03 00:20:37;;;;;;;4.43;2.20;;;8.00;99.90;;;-142.70;100.00;59355.34;171030;28;1279;-68
2022/05/03 00:20:44;;;;;;;6.48;2.26;;;8.00;99.90;;;-142.70;100.00;59355.34;171556;28;1041;-71
2022/05/03 00:20:51;;;;;;;6.97;2.47;;;8.00;99.90;;;-142.70;100.00;59355.34;171443;28;1150;-69
2022/05/03 00:20:57;;;;;;;5.68;2.54;;;8.00;99.90;;;-142.70;100.00;59355.34;172238;28;1166;-69
2022/05/03 00:21:03;;;;;;;5.47;2.50;;;8.00;99.90;;;-142.70;100.00;59355.34;171773;28;1288;-70
2022/05/03 00:21:10;;;;;;;3.95;2.40;;;8.00;99.90;;;-142.70;100.00;59355.34;172262;28;2759;-68
2022/05/03 00:21:16;;;;;;;4.03;2.47;;;8.00;99.90;;;-142.70;100.00;59355.34;172514;28;1058;-70
2022/05/03 00:21:22;;;;;;;4.75;2.50;;;8.00;99.90;;;-142.70;100.00;59355.34;171710;28;1224;-70
2022/05/03 00:21:28;;;;;;;5.03;2.45;;;8.00;99.90;;;-142.70;100.00;59355.34;171830;28;828;-70
2022/05/03 00:21:35;;;;;;;5.10;2.50;;;8.00;99.90;;;-142.70;100.00;59355.34;171413;28;1078;-69
2022/05/03 00:21:41;;;;;;;5.00;2.40;;;8.00;99.90;;;-142.70;100.00;59355.34;171895;28;1576;-70
2022/05/03 00:21:47;;;;;;;4.22;2.35;;;8.00;99.90;;;-142.70;100.00;59355.34;171414;28;1049;-69
2022/05/03 00:21:53;;;;;;;3.42;2.33;;;8.00;99.90;;;-142.70;100.00;59355.34;173025;28;1485;-70
2022/05/03 00:21:59;;;;;;;3.00;2.30;;;8.10;99.90;;;-142.70;100.00;59355.34;172245;28;1374;-68
2022/05/03 00:22:05;;;;;;;3.00;2.40;;;8.10;99.90;;;-142.70;100.00;59355.34;171556;28;1229;-66
2022/05/03 00:22:14;;;;;;;3.10;2.40;;;8.10;99.90;;;-142.70;100.00;59355.34;172468;28;1347;-70
2022/05/03 00:22:21;;;;;;;3.23;2.37;;;8.10;99.90;;;-142.70;100.00;59355.34;171052;28;1428;-71
2022/05/03 00:22:29;;;;;;;3.24;2.26;;;8.10;99.90;;;-142.70;100.00;59355.34;171023;28;1227;-69
2022/05/03 00:22:35;;;;;;;3.47;2.30;;;8.10;99.90;;;-142.70;100.00;59355.34;171062;28;1401;-70
2022/05/03 00:22:41;;;;;;;3.53;2.40;;;8.10;99.90;;;-142.70;100.00;59355.34;171081;28;1320;-68
2022/05/03 00:22:47;;;;;;;3.70;2.30;;;8.10;99.90;;;-142.70;100.00;59355.34;171524;28;1727;-69
2022/05/03 00:22:55;;;;;;;4.18;2.40;;;8.10;99.90;;;-142.70;100.00;59355.34;171536;28;1616;-70
2022/05/03 00:23:01;;;;;;;6.23;2.55;;;8.10;99.90;;;-142.70;100.00;59355.34;170337;29;965;-71
2022/05/03 00:23:08;;;;;;;7.53;2.63;;;8.10;99.90;;;-142.70;100.00;59355.34;171206;28;1259;-69
2022/05/03 00:23:15;;;;;;;7.56;2.66;;;8.10;99.90;;;-142.70;100.00;59355.34;170435;29;1038;-70
2022/05/03 00:23:22;;;;;;;7.07;2.67;;;8.10;99.90;;;-142.70;100.00;59355.34;171712;28;1457;-69
2022/05/03 00:23:28;;;;;;;5.93;2.67;;;8.10;99.90;;;-142.70;100.00;59355.34;171790;28;1133;-71
2022/05/03 00:23:35;;;;;;;3.35;2.42;;;8.10;99.90;;;-142.70;100.00;59355.34;171458;28;1061;-69
2022/05/03 00:23:41;;;;;;;3.36;2.50;;;8.10;99.90;;;-142.70;100.00;59355.34;172244;28;1083;-70
2022/05/03 00:23:47;;;;;;;3.53;2.42;;;8.10;99.90;;;-142.70;100.00;59355.34;171153;28;1778;-69
2022/05/03 00:23:53;;;;;;;3.97;2.57;;;8.10;99.90;;;-142.70;100.00;59355.34;172316;28;1184;-70
2022/05/03 00:23:59;;;;;;;4.37;2.70;;;8.10;99.90;;;-142.70;100.00;59355.34;171469;28;1558;-70
2022/05/03 00:24:06;;;;;;;4.38;2.70;;;8.10;99.90;;;-142.70;100.00;59355.34;170864;28;1463;-71
2022/05/03 00:24:12;;;;;;;4.40;2.50;;;8.10;99.90;;;-142.70;100.00;59355.34;172342;28;1410;-69
2022/05/03 00:24:19;;;;;;;4.20;2.60;;;8.10;99.90;;;-142.70;100.00;59355.34;172005;28;1780;-66
2022/05/03 00:24:25;;;;;;;4.32;2.68;;;8.00;99.90;;;-142.70;100.00;59355.34;171297;28;1373;-66
2022/05/03 00:24:31;;;;;;;4.57;2.70;;;8.00;99.90;;;-142.70;100.00;59355.34;172330;28;1537;-71
2022/05/03 00:24:37;;;;;;;4.90;2.72;;;8.00;99.90;;;-142.70;100.00;59355.34;172433;28;895;-69
2022/05/03 00:24:43;;;;;;;5.28;2.83;;;8.00;99.90;;;-142.70;100.00;59355.34;171919;28;1077;-70
2022/05/03 00:24:54;;;;;;;5.63;2.87;;;8.10;99.90;;;-142.70;100.00;59355.34;171790;28;836;-70
2022/05/03 00:25:01;;;;;;;5.32;2.56;;;8.10;99.90;;;-142.70;100.00;59355.34;171744;28;1227;-70
2022/05/03 00:25:07;;;;;;;4.80;2.54;;;8.00;99.90;;;-142.70;100.00;59355.34;171503;28;1091;-68
2022/05/03 00:25:14;;;;;;;4.40;2.63;;;8.00;99.90;;;-142.70;100.00;59355.34;171014;28;967;-70
2022/05/03 00:25:20;;;;;;;4.10;2.72;;;8.00;99.90;;;-142.70;100.00;59355.34;170962;28;1492;-69
2022/05/03 00:25:26;;;;;;;4.00;2.83;;;8.00;99.90;;;-142.70;100.00;59355.34;171514;28;1187;-71
2022/05/03 00:25:32;;;;;;;3.70;2.70;;;8.00;99.90;;;-142.70;100.00;59355.34;171543;28;1248;-68
2022/05/03 00:25:38;;;;;;;3.68;2.72;;;8.00;99.90;;;-142.70;100.00;59355.34;172376;28;1622;-70
2022/05/03 00:25:44;;;;;;;3.35;2.50;;;8.00;99.90;;;-142.70;100.00;59355.34;171536;28;1458;-66
2022/05/03 00:25:51;;;;;;;3.17;2.40;;;8.00;99.90;;;-142.70;100.00;59355.34;170949;28;1120;-70
2022/05/03 00:25:57;;;;;;;3.50;2.52;;;8.00;99.90;;;-142.70;100.00;59355.34;171459;28;1561;-69
2022/05/03 00:26:04;;;;;;;3.72;2.55;;;8.10;99.90;;;-142.70;100.00;59355.34;170878;28;2303;-69
2022/05/03 00:26:10;;;;;;;3.47;2.42;;;8.00;99.90;;;-142.70;100.00;59355.34;171147;28;1057;-71
2022/05/03 00:26:16;;;;;;;3.76;2.56;;;8.00;99.90;;;-142.70;100.00;59355.34;171260;28;1417;-70
2022/05/03 00:26:22;;;;;;;3.67;2.60;;;8.00;99.90;;;-142.70;100.00;59355.34;172877;28;991;-70
2022/05/03 00:26:29;;;;;;;3.30;2.42;;;8.00;99.90;;;-142.70;100.00;59355.34;172026;28;1027;-70
2022/05/03 00:26:35;;;;;;;3.13;2.40;;;8.00;99.90;;;-142.70;100.00;59355.34;173249;28;907;-70
2022/05/03 00:26:41;;;;;;;3.10;2.50;;;8.00;99.90;;;-142.70;100.00;59355.34;172497;28;1642;-71
2022/05/03 00:26:47;;;;;;;2.92;2.40;;;8.00;99.90;;;-142.70;100.00;59355.34;172318;28;1823;-70
2022/05/03 00:26:53;;;;;;;2.92;2.35;;;8.00;99.90;;;-142.70;100.00;59355.34;170815;28;1290;-70
2022/05/03 00:26:59;;;;;;;3.10;2.30;;;8.00;99.90;;;-142.70;100.00;59355.34;172252;28;1284;-69
2022/05/03 00:27:05;;;;;;;3.05;2.22;;;8.00;99.90;;;-142.70;100.00;59355.34;170755;28;2066;-69
2022/05/03 00:27:13;;;;;;;3.10;2.22;;;8.00;99.90;;;-142.70;100.00;59355.34;172354;28;1314;-71
2022/05/03 00:27:18;;;;;;;3.97;2.40;;;8.10;99.90;;;-142.70;100.00;59355.34;171666;28;1244;-68
2022/05/03 00:27:26;;;;;;;3.95;2.47;;;8.00;99.90;;;-142.70;100.00;59355.34;171699;28;2479;-69
2022/05/03 00:27:34;;;;;;;3.95;2.60;;;8.00;99.90;;;-142.70;100.00;59355.34;171027;28;1365;-70
2022/05/03 00:27:40;;;;;;;4.16;2.80;;;8.00;99.90;;;-142.70;100.00;59355.34;170715;28;1384;-69
2022/05/03 00:27:46;;;;;;;4.18;2.83;;;8.00;99.90;;;-142.70;100.00;59355.34;170767;28;1059;-69
2022/05/03 00:27:52;;;;;;;3.73;2.67;;;8.10;99.90;;;-142.70;100.00;59355.34;171090;28;1342;-69
2022/05/03 00:27:59;;;;;;;3.86;2.70;;;8.00;99.90;;;-142.70;100.00;59355.34;171054;28;985;-69
2022/05/03 00:28:05;;;;;;;4.10;2.78;;;8.00;99.90;;;-142.70;100.00;59355.34;172465;28;970;-69
2022/05/03 00:28:12;;;;;;;4.14;2.74;;;8.00;99.90;;;-142.70;100.00;59355.34;171685;28;991;-66
2022/05/03 00:28:19;;;;;;;3.83;2.65;;;8.10;99.90;;;-142.70;100.00;59355.34;171264;28;1413;-67
2022/05/03 00:28:26;;;;;;;3.95;2.83;;;8.00;99.90;;;-142.70;100.00;59355.34;171991;28;1490;-68
2022/05/03 00:28:33;;;;;;;3.66;2.74;;;8.00;99.90;;;-142.70;100.00;59355.34;173002;28;1455;-70
2022/05/03 00:28:39;;;;;;;3.33;2.63;;;8.00;99.90;;;-142.70;100.00;59355.34;171910;28;1380;-69
2022/05/03 00:28:45;;;;;;;3.88;2.80;;;8.00;99.90;;;-142.70;100.00;59355.34;172121;28;1355;-69
2022/05/03 00:28:52;;;;;;;4.24;2.78;;;8.00;99.90;;;-142.70;100.00;59355.34;173052;28;1212;-69
2022/05/03 00:28:59;;;;;;;4.63;2.97;;;8.10;99.90;;;-142.70;100.00;59355.34;171379;28;1460;-70
2022/05/03 00:29:05;;;;;;;5.03;3.10;;;8.10;99.90;;;-142.70;100.00;59355.34;170508;28;1439;-69
2022/05/03 00:29:11;;;;;;;5.00;3.00;;;8.10;99.90;;;-142.70;100.00;59355.34;171678;28;2049;-70
2022/05/03 00:29:18;;;;;;;4.82;2.90;;;8.10;99.90;;;-142.70;100.00;59355.34;171678;28;1015;-67
2022/05/03 00:29:24;;;;;;;4.65;3.00;;;8.00;99.90;;;-142.70;100.00;59355.34;171043;28;997;-71
2022/05/03 00:29:32;;;;;;;5.62;2.90;;;8.00;99.90;;;-142.70;100.00;59355.34;171071;28;947;-70
2022/05/03 00:29:38;;;;;;;6.17;2.93;;;8.00;99.90;;;-142.70;100.00;59355.34;171081;28;999;-70
2022/05/03 00:29:44;;;;;;;5.90;2.97;;;8.00;99.90;;;-142.70;100.00;59355.34;171037;28;1009;-68
2022/05/03 00:29:52;;;;;;;5.65;2.80;;;8.00;99.90;;;-142.70;100.00;59355.34;170886;28;1422;-70
2022/05/03 00:29:58;;;;;;;4.93;2.56;;;8.00;99.90;;;-142.70;100.00;59355.34;170976;28;1235;-69
2022/05/03 00:30:07;;;;;;;4.15;2.58;;;8.00;99.90;;;-142.70;100.00;59355.34;170671;28;1422;-70
2022/05/03 00:30:13;;;;;;;3.92;2.57;;;8.00;99.90;;;-142.70;100.00;59355.34;170516;28;1200;-69
2022/05/03 00:30:19;;;;;;;3.97;2.70;;;8.00;99.90;;;-142.70;100.00;59355.34;170040;28;1046;-67
2022/05/03 00:30:26;;;;;;;3.95;2.70;;;8.00;99.90;;;-142.70;100.00;59355.34;172072;28;1225;-69
2022/05/03 00:30:33;;;;;;;3.65;2.72;;;8.00;99.90;;;-142.70;100.00;59355.34;171773;28;964;-70
2022/05/03 00:30:39;;;;;;;2.95;2.50;;;8.10;99.90;;;-142.70;100.00;59355.34;172012;28;1431;-69
2022/05/03 00:30:46;;;;;;;3.03;2.53;;;8.00;99.90;;;-142.70;100.00;59355.34;171597;28;1607;-68
2022/05/03 00:30:53;;;;;;;2.98;2.55;;;8.00;99.90;;;-142.70;100.00;59355.34;171768;28;1222;-68
2022/05/03 00:30:59;;;;;;;3.14;2.60;;;8.00;99.90;;;-142.70;100.00;59355.34;171623;28;1641;-70
2022/05/03 00:31:06;;;;;;;3.30;2.67;;;8.00;99.90;;;-142.70;100.00;59355.34;170737;28;1646;-66
2022/05/03 00:31:13;;;;;;;3.47;2.83;;;8.00;99.90;;;-142.70;100.00;59355.34;170517;28;1564;-69
2022/05/03 00:31:19;;;;;;;3.78;3.00;;;8.00;99.90;;;-142.70;100.00;59355.34;171650;28;1065;-71
2022/05/03 00:31:27;;;;;;;3.97;2.90;;;8.00;99.90;;;-142.70;100.00;59355.34;171717;28;1419;-70
2022/05/03 00:31:33;;;;;;;4.00;2.90;;;8.00;99.90;;;-142.70;100.00;59355.34;171424;28;1151;-71
2022/05/03 00:31:39;;;;;;;4.57;2.97;;;8.00;99.90;;;-142.70;100.00;59355.34;171727;28;860;-69
2022/05/03 00:31:45;;;;;;;4.63;2.95;;;8.00;99.90;;;-142.70;100.00;59355.34;171863;28;1454;-69
2022/05/03 00:31:51;;;;;;;4.40;2.90;;;8.00;99.90;;;-142.70;100.00;59355.34;172264;28;2198;-71
2022/05/03 00:31:57;;;;;;;4.15;2.97;;;8.00;99.90;;;-142.70;100.00;59355.34;173059;28;1397;-69
2022/05/03 00:32:04;;;;;;;4.56;3.00;;;8.00;99.90;;;-142.70;100.00;59355.34;172441;28;1343;-69
2022/05/03 00:32:10;;;;;;;4.05;2.72;;;8.00;99.90;;;-142.70;100.00;59355.34;171585;28;3010;-69
2022/05/03 00:32:16;;;;;;;3.90;2.70;;;8.00;99.90;;;-142.70;100.00;59355.34;172140;28;1451;-67
2022/05/03 00:32:23;;;;;;;3.88;2.74;;;8.00;99.90;;;-142.70;100.00;59355.34;171753;28;1470;-71
2022/05/03 00:32:29;;;;;;;3.86;2.72;;;8.00;99.90;;;-142.70;100.00;59355.34;171540;28;1521;-70
2022/05/03 00:32:36;;;;;;;3.67;2.72;;;8.00;99.90;;;-142.70;100.00;59355.34;171703;28;1590;-70
2022/05/03 00:32:41;;;;;;;3.65;2.83;;;7.90;99.90;;;-142.70;100.00;59355.34;172551;28;1716;-69
2022/05/03 00:32:48;;;;;;;3.65;2.75;;;7.90;99.90;;;-142.70;100.00;59355.34;171787;28;825;-70
2022/05/03 00:32:54;;;;;;;3.37;2.57;;;7.90;99.90;;;-142.70;100.00;59355.34;172205;28;1475;-70
2022/05/03 00:33:00;;;;;;;3.50;2.60;;;7.90;99.90;;;-142.70;100.00;59355.34;172308;28;1437;-70
2022/05/03 00:33:07;;;;;;;3.42;2.70;;;7.90;99.90;;;-142.70;100.00;59355.34;172250;28;1365;-70
2022/05/03 00:33:13;;;;;;;3.83;2.80;;;7.90;99.90;;;-142.70;100.00;59355.34;171714;28;1515;-70
2022/05/03 00:33:20;;;;;;;4.03;2.95;;;7.90;99.90;;;-142.70;100.00;59355.34;171250;28;1364;-70
2022/05/03 00:33:27;;;;;;;4.20;2.96;;;7.90;99.90;;;-142.70;100.00;59355.34;172550;28;947;-71
2022/05/03 00:33:33;;;;;;;3.90;2.78;;;7.90;99.90;;;-142.70;100.00;59355.34;171982;28;1116;-71
2022/05/03 00:33:40;;;;;;;3.53;2.60;;;7.90;99.90;;;-142.70;100.00;59355.34;172424;28;1299;-70
2022/05/03 00:33:46;;;;;;;3.27;2.50;;;7.90;99.90;;;-142.70;100.00;59355.34;171689;28;1687;-71
2022/05/03 00:33:54;;;;;;;3.55;2.70;;;7.90;99.90;;;-142.70;100.00;59355.34;171087;28;912;-69
2022/05/03 00:34:00;;;;;;;3.70;2.83;;;7.90;99.90;;;-142.70;100.00;59355.34;170952;28;1085;-67
2022/05/03 00:34:06;;;;;;;3.87;2.97;;;7.80;99.90;;;-142.70;100.00;59355.34;170995;28;1686;-70
2022/05/03 00:34:13;;;;;;;6.35;3.10;;;7.90;99.90;;;-142.70;100.00;59355.34;171230;28;1108;-71
2022/05/03 00:34:19;;;;;;;13.02;2.95;;;7.90;99.90;;;-142.70;100.00;59355.34;170458;28;1846;-69
2022/05/03 00:34:26;;;;;;;13.10;2.80;;;7.90;99.90;;;-142.70;100.00;59355.34;169915;29;1478;-68
2022/05/03 00:34:33;;;;;;;13.46;2.90;;;7.90;99.90;;;-142.70;100.00;59355.34;171166;28;1639;-70
2022/05/03 00:34:39;;;;;;;13.60;2.90;;;7.90;99.90;;;-142.70;100.00;59355.34;171234;28;1575;-70
2022/05/03 00:34:45;;;;;;;6.93;2.92;;;7.90;99.90;;;-142.70;100.00;59355.34;171086;28;1565;-70
2022/05/03 00:34:51;;;;;;;4.75;3.00;;;7.90;99.90;;;-142.70;100.00;59355.34;170719;28;1250;-69
2022/05/03 00:35:00;;;;;;;4.38;2.95;;;7.80;99.90;;;-142.70;100.00;59355.34;172196;28;2248;-69
2022/05/03 00:35:10;;;;;;;3.97;2.76;;;7.90;99.90;;;-142.70;100.00;59355.34;171838;28;1158;-71
2022/05/03 00:35:16;;;;;;;4.64;2.87;;;7.90;99.90;;;-142.70;100.00;59355.34;172415;28;1033;-68
2022/05/03 00:35:23;;;;;;;5.15;2.83;;;7.90;99.90;;;-142.70;100.00;59355.34;171272;28;1206;-69
2022/05/03 00:35:30;;;;;;;5.20;2.80;;;7.80;99.90;;;-142.70;100.00;59355.34;171477;28;1326;-66
2022/05/03 00:35:36;;;;;;;5.67;2.73;;;7.80;99.90;;;-142.70;100.00;59355.34;171637;28;1368;-71
2022/05/03 00:35:43;;;;;;;5.26;2.64;;;7.80;99.90;;;-142.70;100.00;59355.34;171083;28;995;-70
2022/05/03 00:35:50;;;;;;;5.18;2.62;;;7.80;99.90;;;-142.70;100.00;59355.34;171625;28;1238;-70
2022/05/03 00:35:56;;;;;;;5.03;2.65;;;7.80;99.90;;;-142.70;100.00;59355.34;172286;28;1343;-67
2022/05/03 00:36:02;;;;;;;4.85;2.60;;;7.80;99.90;;;-142.70;100.00;59355.34;172428;28;1525;-69
2022/05/03 00:36:07;;;;;;;4.63;2.55;;;7.80;99.90;;;-142.70;100.00;59355.34;173071;28;1196;-69
2022/05/03 00:36:13;;;;;;;4.95;2.58;;;7.80;99.90;;;-142.70;100.00;59355.34;171767;28;1509;-69
2022/05/03 00:36:19;;;;;;;3.97;2.40;;;7.70;99.90;;;-142.70;100.00;59355.34;171658;28;813;-68
2022/05/03 00:36:25;;;;;;;4.38;2.42;;;7.70;99.90;;;-142.70;100.00;59355.34;172382;28;1310;-68
2022/05/03 00:36:31;;;;;;;4.03;2.40;;;7.70;99.90;;;-142.70;100.00;59355.34;171770;28;855;-71
2022/05/03 00:36:37;;;;;;;3.72;2.30;;;7.70;99.90;;;-142.70;100.00;59355.34;170892;28;1033;-68
2022/05/03 00:36:43;;;;;;;3.30;2.23;;;7.70;99.90;;;-142.70;100.00;59355.34;172202;28;1376;-71
2022/05/03 00:36:49;;;;;;;3.05;2.20;;;7.70;99.90;;;-142.70;100.00;59355.34;172516;28;919;-71
2022/05/03 00:36:54;;;;;;;3.05;2.30;;;7.70;99.90;;;-142.70;100.00;59355.34;172328;28;1037;-70
2022/05/03 00:37:00;;;;;;;2.97;2.30;;;7.70;99.90;;;-142.70;100.00;59355.34;171761;28;1006;-70
2022/05/03 00:37:06;;;;;;;3.00;2.38;;;7.70;99.90;;;-142.70;100.00;59355.34;170928;28;1039;-70
2022/05/03 00:37:12;;;;;;;2.92;2.33;;;7.70;99.90;;;-142.70;100.00;59355.34;171799;28;1033;-70
2022/05/03 00:37:18;;;;;;;3.27;2.37;;;7.70;99.90;;;-142.70;100.00;59355.34;171506;28;1424;-68
2022/05/03 00:37:24;;;;;;;3.34;2.46;;;7.70;99.90;;;-142.70;100.00;59355.34;170897;28;2225;-68
2022/05/03 00:37:30;;;;;;;3.20;2.40;;;7.70;99.90;;;-142.70;100.00;59355.34;169979;28;1052;-69
2022/05/03 00:37:36;;;;;;;3.23;2.43;;;7.60;99.90;;;-142.70;100.00;59355.34;170854;28;1036;-71
2022/05/03 00:37:42;;;;;;;3.40;2.50;;;7.60;99.90;;;-142.70;100.00;59355.34;170357;29;1141;-70
2022/05/03 00:37:48;;;;;;;4.00;2.47;;;7.60;99.90;;;-142.70;100.00;59355.34;170254;29;1127;-71
2022/05/03 00:37:54;;;;;;;4.93;2.47;;;7.60;99.90;;;-142.70;100.00;59355.34;170431;29;1216;-70
2022/05/03 00:38:00;;;;;;;4.90;2.40;;;7.60;99.90;;;-142.70;100.00;59355.34;170252;28;1412;-68
2022/05/03 00:38:06;;;;;;;5.15;2.50;;;7.60;99.90;;;-142.70;100.00;59355.34;169921;29;853;-71
2022/05/03 00:38:11;;;;;;;5.25;2.50;;;7.60;99.90;;;-142.70;100.00;59355.34;169836;29;1149;-68
2022/05/03 00:38:17;;;;;;;4.50;2.45;;;7.60;99.90;;;-142.70;100.00;59355.34;171000;28;1982;-70
2022/05/03 00:38:23;;;;;;;3.60;2.40;;;7.60;99.90;;;-142.70;100.00;59355.34;172275;28;1273;-70